sensor_id;sensor_type;location;lat;lon;timestamp;pressure;altitude;pressure_sealevel;temperature;humidity
43155;BME280;34212;51.018;13.586;2023-04-08T05:05:36;98169.47;;;6.22;86.46
43155;BME280;34212;51.018;13.586;2023-04-08T05:10:39;98179.47;;;6.28;86.53
43155;BME280;34212;51.018;13.586;2023-04-08T05:15:41;98182.25;;;6.36;86.49
43155;BME280;34212;51.018;13.586;2023-04-08T05:20:43;98189.22;;;6.37;86.21
43155;BME280;34212;51.018;13.586;2023-04-08T05:25:44;98198.16;;;6.36;86.38
43155;BME280;34212;51.018;13.586;2023-04-08T05:30:50;98199.81;;;6.37;86.39
43155;BME280;34212;51.018;13.586;2023-04-08T05:35:52;98204.81;;;6.40;86.64
43155;BME280;34212;51.018;13.586;2023-04-08T05:40:54;98192.56;;;6.39;86.30
43155;BME280;34212;51.018;13.586;2023-04-08T05:45:55;98201.47;;;6.38;86.76
43155;BME280;34212;51.018;13.586;2023-04-08T05:50:57;98208.16;;;6.42;87.33
43155;BME280;34212;51.018;13.586;2023-04-08T05:55:58;98200.91;;;6.44;87.06
43155;BME280;34212;51.018;13.586;2023-04-08T06:01:00;98211.50;;;6.44;87.08
43155;BME280;34212;51.018;13.586;2023-04-08T06:06:01;98203.66;;;6.53;87.63
43155;BME280;34212;51.018;13.586;2023-04-08T06:11:03;98213.41;;;6.62;87.20
43155;BME280;34212;51.018;13.586;2023-04-08T06:16:13;98213.94;;;6.65;86.85
43155;BME280;34212;51.018;13.586;2023-04-08T06:21:15;98227.34;;;6.64;87.34
43155;BME280;34212;51.018;13.586;2023-04-08T06:26:16;98227.75;;;6.69;87.40
43155;BME280;34212;51.018;13.586;2023-04-08T06:31:18;98230.50;;;6.77;87.55
43155;BME280;34212;51.018;13.586;2023-04-08T06:36:19;98238.88;;;6.82;87.09
43155;BME280;34212;51.018;13.586;2023-04-08T06:41:21;98232.28;;;6.86;87.79
43155;BME280;34212;51.018;13.586;2023-04-08T06:46:23;98238.97;;;6.90;87.21
43155;BME280;34212;51.018;13.586;2023-04-08T06:51:25;98248.00;;;6.98;87.49
43155;BME280;34212;51.018;13.586;2023-04-08T06:56:28;98253.28;;;7.07;87.58
43155;BME280;34212;51.018;13.586;2023-04-08T07:01:29;98254.19;;;7.16;87.37
43155;BME280;34212;51.018;13.586;2023-04-08T07:06:32;98266.72;;;7.24;87.50
43155;BME280;34212;51.018;13.586;2023-04-08T07:11:33;98263.56;;;7.38;87.55
43155;BME280;34212;51.018;13.586;2023-04-08T07:16:35;98268.28;;;7.44;87.37
43155;BME280;34212;51.018;13.586;2023-04-08T07:21:36;98271.19;;;7.51;87.68
43155;BME280;34212;51.018;13.586;2023-04-08T07:26:38;98281.47;;;7.54;87.36
43155;BME280;34212;51.018;13.586;2023-04-08T07:31:41;98276.03;;;7.55;87.82
43155;BME280;34212;51.018;13.586;2023-04-08T07:36:43;98296.44;;;7.55;87.37
43155;BME280;34212;51.018;13.586;2023-04-08T07:41:44;98294.47;;;7.57;87.78
43155;BME280;34212;51.018;13.586;2023-04-08T07:46:46;98292.59;;;7.67;87.92
43155;BME280;34212;51.018;13.586;2023-04-08T07:51:51;98309.41;;;7.85;87.61
43155;BME280;34212;51.018;13.586;2023-04-08T07:56:53;98307.13;;;8.08;88.05
43155;BME280;34212;51.018;13.586;2023-04-08T08:01:55;98319.09;;;8.30;87.59
43155;BME280;34212;51.018;13.586;2023-04-08T08:06:56;98313.72;;;8.40;87.48
43155;BME280;34212;51.018;13.586;2023-04-08T08:11:58;98323.31;;;8.51;87.27
43155;BME280;34212;51.018;13.586;2023-04-08T08:17:00;98323.41;;;8.67;87.15
43155;BME280;34212;51.018;13.586;2023-04-08T08:22:01;98332.59;;;8.73;87.23
43155;BME280;34212;51.018;13.586;2023-04-08T08:27:03;98334.44;;;8.72;86.79
43155;BME280;34212;51.018;13.586;2023-04-08T08:32:07;98339.13;;;8.78;86.63
43155;BME280;34212;51.018;13.586;2023-04-08T08:37:09;98332.44;;;8.74;86.38
43155;BME280;34212;51.018;13.586;2023-04-08T08:42:21;98346.16;;;8.88;86.23
43155;BME280;34212;51.018;13.586;2023-04-08T08:47:23;98357.16;;;8.93;86.14
43155;BME280;34212;51.018;13.586;2023-04-08T08:52:25;98362.34;;;8.94;85.59
43155;BME280;34212;51.018;13.586;2023-04-08T08:57:26;98367.19;;;8.99;85.67
43155;BME280;34212;51.018;13.586;2023-04-08T09:02:30;98373.66;;;8.96;85.13
43155;BME280;34212;51.018;13.586;2023-04-08T09:07:37;98378.44;;;8.93;85.49
43155;BME280;34212;51.018;13.586;2023-04-08T09:12:54;98384.59;;;8.93;85.76
43155;BME280;34212;51.018;13.586;2023-04-08T09:17:57;98382.53;;;9.05;85.59
43155;BME280;34212;51.018;13.586;2023-04-08T09:23:01;98392.97;;;9.24;86.34
43155;BME280;34212;51.018;13.586;2023-04-08T09:28:02;98399.53;;;9.38;85.33
43155;BME280;34212;51.018;13.586;2023-04-08T09:33:04;98415.59;;;9.55;85.33
43155;BME280;34212;51.018;13.586;2023-04-08T09:38:07;98410.84;;;9.66;85.40
43155;BME280;34212;51.018;13.586;2023-04-08T09:43:12;98408.69;;;9.70;85.25
43155;BME280;34212;51.018;13.586;2023-04-08T09:48:17;98413.19;;;9.69;84.95
43155;BME280;34212;51.018;13.586;2023-04-08T09:53:34;98413.81;;;9.63;85.07
43155;BME280;34212;51.018;13.586;2023-04-08T09:58:47;98413.13;;;9.61;85.16
43155;BME280;34212;51.018;13.586;2023-04-08T10:03:51;98418.00;;;9.66;85.55
43155;BME280;34212;51.018;13.586;2023-04-08T10:08:55;98412.19;;;9.70;84.51
43155;BME280;34212;51.018;13.586;2023-04-08T10:13:57;98417.03;;;9.75;85.26
43155;BME280;34212;51.018;13.586;2023-04-08T10:18:59;98422.56;;;9.82;84.48
43155;BME280;34212;51.018;13.586;2023-04-08T10:24:05;98423.94;;;9.94;84.45
43155;BME280;34212;51.018;13.586;2023-04-08T10:34:20;98429.66;;;10.07;84.22
43155;BME280;34212;51.018;13.586;2023-04-08T10:39:24;98428.97;;;10.05;84.17
43155;BME280;34212;51.018;13.586;2023-04-08T10:44:26;98430.34;;;10.09;83.77
43155;BME280;34212;51.018;13.586;2023-04-08T10:49:32;98420.00;;;10.14;82.77
43155;BME280;34212;51.018;13.586;2023-04-08T10:54:34;98425.03;;;10.26;82.87
43155;BME280;34212;51.018;13.586;2023-04-08T10:59:36;98432.44;;;10.48;82.08
43155;BME280;34212;51.018;13.586;2023-04-08T11:04:43;98433.47;;;10.80;81.33
43155;BME280;34212;51.018;13.586;2023-04-08T11:09:45;98428.16;;;10.80;81.50
43155;BME280;34212;51.018;13.586;2023-04-08T11:14:46;98433.47;;;10.80;81.14
43155;BME280;34212;51.018;13.586;2023-04-08T11:19:51;98422.81;;;10.72;80.23
43155;BME280;34212;51.018;13.586;2023-04-08T11:24:54;98438.31;;;10.60;79.97
43155;BME280;34212;51.018;13.586;2023-04-08T11:29:56;98439.78;;;10.38;79.76
43155;BME280;34212;51.018;13.586;2023-04-08T11:35:03;98449.50;;;10.21;79.95
43155;BME280;34212;51.018;13.586;2023-04-08T11:40:10;98445.66;;;10.15;79.76
43155;BME280;34212;51.018;13.586;2023-04-08T11:45:13;98451.66;;;10.09;79.66
43155;BME280;34212;51.018;13.586;2023-04-08T11:50:24;98456.97;;;10.09;79.75
43155;BME280;34212;51.018;13.586;2023-04-08T11:55:26;98457.97;;;10.08;80.07
43155;BME280;34212;51.018;13.586;2023-04-08T12:00:28;98454.84;;;10.21;79.92
43155;BME280;34212;51.018;13.586;2023-04-08T12:05:31;98449.28;;;10.40;80.92
43155;BME280;34212;51.018;13.586;2023-04-08T12:10:32;98447.81;;;10.62;80.33
43155;BME280;34212;51.018;13.586;2023-04-08T12:15:34;98454.66;;;10.73;79.51
43155;BME280;34212;51.018;13.586;2023-04-08T12:20:35;98457.84;;;10.69;79.71
43155;BME280;34212;51.018;13.586;2023-04-08T12:25:37;98461.13;;;10.54;79.88
43155;BME280;34212;51.018;13.586;2023-04-08T12:30:39;98468.09;;;10.39;79.53
43155;BME280;34212;51.018;13.586;2023-04-08T12:35:41;98472.19;;;10.25;79.83
43155;BME280;34212;51.018;13.586;2023-04-08T12:40:43;98473.94;;;10.08;79.27
43155;BME280;34212;51.018;13.586;2023-04-08T12:45:45;98474.88;;;9.91;79.22
43155;BME280;34212;51.018;13.586;2023-04-08T12:50:47;98475.84;;;9.82;79.25
43155;BME280;34212;51.018;13.586;2023-04-08T12:55:48;98487.44;;;9.73;78.70
43155;BME280;34212;51.018;13.586;2023-04-08T13:00:51;98481.75;;;9.67;79.45
43155;BME280;34212;51.018;13.586;2023-04-08T13:05:53;98486.75;;;9.70;79.41
43155;BME280;34212;51.018;13.586;2023-04-08T13:10:54;98489.94;;;9.74;79.43
43155;BME280;34212;51.018;13.586;2023-04-08T13:15:56;98486.06;;;9.68;79.44
43155;BME280;34212;51.018;13.586;2023-04-08T13:21:01;98484.56;;;9.66;79.76
43155;BME280;34212;51.018;13.586;2023-04-08T13:26:02;98495.69;;;9.61;79.76
43155;BME280;34212;51.018;13.586;2023-04-08T13:31:04;98491.50;;;9.59;80.14
43155;BME280;34212;51.018;13.586;2023-04-08T13:36:06;98502.97;;;9.59;79.95
43155;BME280;34212;51.018;13.586;2023-04-08T13:41:07;98503.34;;;9.64;79.85
43155;BME280;34212;51.018;13.586;2023-04-08T13:46:09;98506.97;;;9.81;79.99
43155;BME280;34212;51.018;13.586;2023-04-08T13:51:10;98500.34;;;9.93;79.48
43155;BME280;34212;51.018;13.586;2023-04-08T13:56:12;98500.97;;;10.22;79.42
43155;BME280;34212;51.018;13.586;2023-04-08T14:01:13;98496.41;;;10.40;79.33
43155;BME280;34212;51.018;13.586;2023-04-08T14:06:15;98501.75;;;10.40;78.52
43155;BME280;34212;51.018;13.586;2023-04-08T14:11:16;98507.81;;;10.50;78.62
43155;BME280;34212;51.018;13.586;2023-04-08T14:16:18;98507.97;;;10.65;77.50
43155;BME280;34212;51.018;13.586;2023-04-08T14:21:19;98507.34;;;10.79;77.87
43155;BME280;34212;51.018;13.586;2023-04-08T14:26:21;98514.72;;;10.85;77.59
43155;BME280;34212;51.018;13.586;2023-04-08T14:31:22;98507.53;;;10.86;77.01
43155;BME280;34212;51.018;13.586;2023-04-08T14:36:25;98505.53;;;10.88;77.01
43155;BME280;34212;51.018;13.586;2023-04-08T14:48:31;98518.44;;;10.42;76.92
43155;BME280;34212;51.018;13.586;2023-04-08T14:55:45;98512.28;;;10.15;77.84
43155;BME280;34212;51.018;13.586;2023-04-08T15:00:47;98521.09;;;10.08;77.47
43155;BME280;34212;51.018;13.586;2023-04-08T15:05:49;98521.72;;;10.02;77.53
43155;BME280;34212;51.018;13.586;2023-04-08T15:10:50;98527.69;;;9.95;77.33
43155;BME280;34212;51.018;13.586;2023-04-08T15:15:52;98530.16;;;9.89;77.02
43155;BME280;34212;51.018;13.586;2023-04-08T15:20:53;98536.47;;;9.88;76.78
43155;BME280;34212;51.018;13.586;2023-04-08T15:25:55;98541.63;;;9.89;77.01
43155;BME280;34212;51.018;13.586;2023-04-08T15:30:57;98543.63;;;9.87;75.68
43155;BME280;34212;51.018;13.586;2023-04-08T15:35:59;98542.25;;;9.83;75.98
43155;BME280;34212;51.018;13.586;2023-04-08T15:41:04;98548.75;;;9.81;76.27
43155;BME280;34212;51.018;13.586;2023-04-08T15:46:06;98553.22;;;9.80;75.83
43155;BME280;34212;51.018;13.586;2023-04-08T15:51:07;98554.06;;;9.81;75.78
43155;BME280;34212;51.018;13.586;2023-04-08T15:56:15;98560.25;;;9.81;75.98
43155;BME280;34212;51.018;13.586;2023-04-08T16:01:17;98557.34;;;9.75;75.68
43155;BME280;34212;51.018;13.586;2023-04-08T16:06:20;98565.31;;;9.66;75.85
43155;BME280;34212;51.018;13.586;2023-04-08T16:11:21;98573.59;;;9.63;75.84
43155;BME280;34212;51.018;13.586;2023-04-08T16:16:23;98579.56;;;9.57;75.66
43155;BME280;34212;51.018;13.586;2023-04-08T16:21:25;98588.81;;;9.53;75.87
43155;BME280;34212;51.018;13.586;2023-04-08T16:26:26;98587.09;;;9.44;76.05
43155;BME280;34212;51.018;13.586;2023-04-08T16:31:28;98585.38;;;9.35;75.55
43155;BME280;34212;51.018;13.586;2023-04-08T16:36:31;98595.63;;;9.30;75.74
43155;BME280;34212;51.018;13.586;2023-04-08T16:41:33;98597.06;;;9.24;75.78
43155;BME280;34212;51.018;13.586;2023-04-08T16:46:34;98602.84;;;9.19;75.27
43155;BME280;34212;51.018;13.586;2023-04-08T16:51:36;98604.13;;;9.15;75.48
43155;BME280;34212;51.018;13.586;2023-04-08T16:56:38;98612.72;;;9.09;76.24
43155;BME280;34212;51.018;13.586;2023-04-08T17:01:44;98621.16;;;9.05;75.82
43155;BME280;34212;51.018;13.586;2023-04-08T17:06:45;98622.28;;;9.02;75.80
43155;BME280;34212;51.018;13.586;2023-04-08T17:11:47;98629.56;;;9.00;75.69
43155;BME280;34212;51.018;13.586;2023-04-08T17:16:48;98624.84;;;8.94;75.35
43155;BME280;34212;51.018;13.586;2023-04-08T17:21:50;98639.75;;;8.87;75.62
43155;BME280;34212;51.018;13.586;2023-04-08T17:26:52;98637.53;;;8.82;75.34
43155;BME280;34212;51.018;13.586;2023-04-08T17:31:53;98650.72;;;8.74;75.56
43155;BME280;34212;51.018;13.586;2023-04-08T17:36:55;98648.53;;;8.69;75.78
43155;BME280;34212;51.018;13.586;2023-04-08T17:41:57;98647.94;;;8.66;75.86
43155;BME280;34212;51.018;13.586;2023-04-08T17:46:58;98647.41;;;8.62;76.29
43155;BME280;34212;51.018;13.586;2023-04-08T17:52:00;98652.09;;;8.50;76.00
43155;BME280;34212;51.018;13.586;2023-04-08T17:57:02;98652.28;;;8.29;75.75
43155;BME280;34212;51.018;13.586;2023-04-08T18:02:04;98659.06;;;8.04;75.39
43155;BME280;34212;51.018;13.586;2023-04-08T18:07:05;98667.19;;;7.83;75.96
43155;BME280;34212;51.018;13.586;2023-04-08T18:12:07;98680.22;;;7.67;76.00
43155;BME280;34212;51.018;13.586;2023-04-08T18:17:08;98686.63;;;7.55;76.36
43155;BME280;34212;51.018;13.586;2023-04-08T18:22:10;98693.47;;;7.48;76.33
43155;BME280;34212;51.018;13.586;2023-04-08T18:27:11;98700.19;;;7.42;76.70
43155;BME280;34212;51.018;13.586;2023-04-08T18:32:13;98708.53;;;7.37;76.47
43155;BME280;34212;51.018;13.586;2023-04-08T18:37:14;98706.16;;;7.34;76.71
43155;BME280;34212;51.018;13.586;2023-04-08T18:42:17;98709.91;;;7.32;76.93
43155;BME280;34212;51.018;13.586;2023-04-08T18:47:18;98710.50;;;7.35;77.05
43155;BME280;34212;51.018;13.586;2023-04-08T18:52:20;98717.59;;;7.35;76.95
43155;BME280;34212;51.018;13.586;2023-04-08T18:57:21;98722.63;;;7.28;77.26
43155;BME280;34212;51.018;13.586;2023-04-08T19:02:23;98727.34;;;7.15;76.92
43155;BME280;34212;51.018;13.586;2023-04-08T19:07:25;98722.41;;;7.01;77.00
43155;BME280;34212;51.018;13.586;2023-04-08T19:12:27;98728.78;;;6.88;77.18
43155;BME280;34212;51.018;13.586;2023-04-08T19:17:29;98723.59;;;6.77;76.94
43155;BME280;34212;51.018;13.586;2023-04-08T19:22:30;98737.66;;;6.68;77.38
43155;BME280;34212;51.018;13.586;2023-04-08T19:27:33;98729.66;;;6.58;77.65
43155;BME280;34212;51.018;13.586;2023-04-08T19:32:34;98728.34;;;6.53;77.71
43155;BME280;34212;51.018;13.586;2023-04-08T19:37:36;98737.81;;;6.45;77.86
43155;BME280;34212;51.018;13.586;2023-04-08T19:42:37;98723.84;;;6.43;77.77
43155;BME280;34212;51.018;13.586;2023-04-08T19:47:39;98729.41;;;6.40;77.50
43155;BME280;34212;51.018;13.586;2023-04-08T19:52:43;98736.91;;;6.35;77.76
43155;BME280;34212;51.018;13.586;2023-04-08T19:57:44;98740.78;;;6.31;77.74
43155;BME280;34212;51.018;13.586;2023-04-08T20:02:46;98731.44;;;6.27;77.83
43155;BME280;34212;51.018;13.586;2023-04-08T20:07:48;98736.25;;;6.22;77.88
43155;BME280;34212;51.018;13.586;2023-04-08T20:12:51;98743.78;;;6.17;78.08
43155;BME280;34212;51.018;13.586;2023-04-08T20:17:52;98735.63;;;6.09;77.97
43155;BME280;34212;51.018;13.586;2023-04-08T20:22:54;98745.75;;;6.04;78.08
43155;BME280;34212;51.018;13.586;2023-04-08T20:27:56;98759.25;;;6.00;78.16
43155;BME280;34212;51.018;13.586;2023-04-08T20:32:57;98754.47;;;5.94;78.16
43155;BME280;34212;51.018;13.586;2023-04-08T20:37:59;98748.81;;;5.88;78.21
43155;BME280;34212;51.018;13.586;2023-04-08T20:43:00;98740.44;;;5.83;78.55
43155;BME280;34212;51.018;13.586;2023-04-08T20:48:03;98739.13;;;5.77;78.55
43155;BME280;34212;51.018;13.586;2023-04-08T20:53:05;98734.34;;;5.71;78.29
43155;BME280;34212;51.018;13.586;2023-04-08T20:58:08;98738.31;;;5.65;78.56
43155;BME280;34212;51.018;13.586;2023-04-08T21:03:09;98743.97;;;5.61;78.36
43155;BME280;34212;51.018;13.586;2023-04-08T21:08:11;98746.28;;;5.54;78.24
43155;BME280;34212;51.018;13.586;2023-04-08T21:13:12;98739.00;;;5.46;78.46
43155;BME280;34212;51.018;13.586;2023-04-08T21:18:14;98735.03;;;5.41;78.29
43155;BME280;34212;51.018;13.586;2023-04-08T21:23:15;98751.63;;;5.31;78.47
43155;BME280;34212;51.018;13.586;2023-04-08T21:28:17;98765.00;;;5.30;78.45
43155;BME280;34212;51.018;13.586;2023-04-08T21:33:18;98763.31;;;5.29;78.69
43155;BME280;34212;51.018;13.586;2023-04-08T21:38:19;98760.66;;;5.29;79.12
43155;BME280;34212;51.018;13.586;2023-04-08T21:43:21;98757.19;;;5.28;78.57
43155;BME280;34212;51.018;13.586;2023-04-08T21:48:22;98769.66;;;5.26;79.11
43155;BME280;34212;51.018;13.586;2023-04-08T21:53:24;98779.66;;;5.23;78.67
43155;BME280;34212;51.018;13.586;2023-04-08T21:58:25;98771.97;;;5.20;79.27
